createdAt,value
2022-08-05T00:00:17.358Z,99.90
2022-08-05T00:02:51.795Z,99.90
2022-08-05T00:06:02.888Z,99.90
2022-08-05T00:08:34.094Z,99.90
2022-08-05T00:11:01.560Z,99.90
2022-08-05T00:13:39.478Z,99.90
2022-08-05T00:16:11.006Z,99.90
2022-08-05T00:18:42.184Z,99.90
2022-08-05T00:21:09.970Z,99.90
2022-08-05T00:23:45.781Z,99.90
2022-08-05T00:26:16.390Z,99.90
2022-08-05T00:28:45.817Z,99.90
2022-08-05T00:31:13.254Z,99.90
2022-08-05T00:34:55.264Z,99.90
2022-08-05T00:37:12.889Z,99.90
2022-08-05T00:39:15.094Z,99.90
2022-08-05T00:41:51.750Z,99.90
2022-08-05T00:44:30.766Z,99.90
2022-08-05T00:47:03.830Z,99.90
2022-08-05T00:49:51.045Z,99.90
2022-08-05T00:52:28.806Z,99.90
2022-08-05T00:54:56.390Z,99.90
2022-08-05T00:57:25.232Z,99.90
2022-08-05T00:59:58.830Z,99.90
2022-08-05T01:02:26.211Z,99.90
2022-08-05T01:04:53.469Z,99.90
2022-08-05T01:07:20.773Z,99.90
2022-08-05T01:09:55.532Z,99.90
2022-08-05T01:12:23.115Z,99.90
2022-08-05T01:15:05.384Z,99.90
2022-08-05T01:17:44.112Z,99.90
2022-08-05T01:20:14.351Z,99.90
2022-08-05T01:22:47.246Z,99.90
2022-08-05T01:25:41.136Z,99.90
2022-08-05T01:28:30.683Z,99.90
2022-08-05T01:31:07.192Z,99.90
2022-08-05T01:33:38.982Z,99.90
2022-08-05T01:36:13.112Z,99.90
2022-08-05T01:38:45.495Z,99.90
2022-08-05T01:41:14.484Z,99.90
2022-08-05T01:43:41.723Z,99.90
2022-08-05T01:46:16.158Z,99.90
2022-08-05T01:48:45.478Z,99.90
2022-08-05T01:51:17.929Z,99.90
2022-08-05T01:53:56.915Z,99.90
2022-08-05T01:58:29.705Z,99.90
2022-08-05T01:59:25.967Z,99.90
2022-08-05T02:01:54.757Z,99.90
2022-08-05T02:04:22.907Z,99.90
2022-08-05T02:06:51.059Z,99.90
2022-08-05T02:09:20.594Z,99.90
2022-08-05T02:11:53.156Z,99.90
2022-08-05T02:14:25.282Z,99.90
2022-08-05T02:16:54.657Z,99.90
2022-08-05T02:19:27.983Z,99.90
2022-08-05T02:22:25.884Z,99.90
2022-08-05T02:25:02.651Z,99.90
2022-08-05T02:27:57.858Z,99.90
2022-08-05T02:30:18.031Z,99.90
2022-08-05T02:32:49.539Z,99.90
2022-08-05T02:35:27.813Z,99.90
2022-08-05T02:37:55.706Z,99.90
2022-08-05T02:40:26.590Z,99.90
2022-08-05T02:42:54.819Z,99.90
2022-08-05T02:45:24.272Z,99.90
2022-08-05T02:48:06.811Z,99.90
2022-08-05T02:50:43.539Z,99.90
2022-08-05T02:53:19.023Z,99.90
2022-08-05T02:55:54.608Z,99.90
2022-08-05T02:58:27.332Z,99.90
2022-08-05T03:00:56.625Z,99.90
2022-08-05T03:03:24.074Z,99.90
2022-08-05T03:06:57.161Z,99.90
2022-08-05T03:08:42.695Z,99.90
2022-08-05T03:11:54.953Z,99.90
2022-08-05T03:14:07.910Z,99.90
2022-08-05T03:16:35.641Z,99.90
2022-08-05T03:19:13.001Z,99.90
2022-08-05T03:21:49.683Z,99.90
2022-08-05T03:24:29.396Z,99.90
2022-08-05T03:26:58.904Z,99.90
2022-08-05T03:29:45.867Z,99.90
2022-08-05T03:32:14.314Z,99.90
2022-08-05T03:34:42.624Z,99.90
2022-08-05T03:37:18.586Z,99.90
2022-08-05T03:39:58.629Z,99.90
2022-08-05T03:42:27.263Z,99.90
2022-08-05T03:44:57.015Z,99.90
2022-08-05T03:47:24.778Z,99.90
2022-08-05T03:49:52.571Z,99.90
2022-08-05T03:52:38.910Z,99.90
2022-08-05T03:56:09.850Z,99.90
2022-08-05T03:58:01.358Z,99.90
2022-08-05T04:00:31.366Z,99.90
2022-08-05T04:02:59.719Z,99.90
2022-08-05T04:05:33.254Z,99.90
2022-08-05T04:08:14.549Z,99.90
2022-08-05T04:10:53.485Z,99.90
2022-08-05T04:13:21.728Z,99.90
2022-08-05T04:16:03.114Z,99.90
2022-08-05T04:18:32.271Z,99.90
2022-08-05T04:21:01.973Z,99.90
2022-08-05T04:24:05.719Z,99.90
2022-08-05T04:26:18.561Z,99.90
2022-08-05T04:28:50.957Z,99.90
2022-08-05T04:31:19.942Z,99.90
2022-08-05T04:34:17.690Z,99.90
2022-08-05T04:36:46.144Z,99.90
2022-08-05T04:39:20.205Z,99.90
2022-08-05T04:41:48.650Z,99.90
2022-08-05T04:44:21.607Z,99.90
2022-08-05T04:46:58.460Z,99.90
2022-08-05T04:49:38.100Z,99.90
2022-08-05T04:52:14.410Z,99.90
2022-08-05T04:54:42.493Z,99.90
2022-08-05T04:57:09.758Z,99.90
2022-08-05T04:59:38.966Z,99.90
2022-08-05T05:02:41.368Z,99.90
2022-08-05T05:05:02.372Z,99.90
2022-08-05T05:07:32.456Z,99.90
2022-08-05T05:10:04.345Z,99.90
2022-08-05T05:12:32.066Z,99.90
2022-08-05T05:14:59.404Z,99.90
2022-08-05T05:17:56.929Z,99.90
2022-08-05T05:20:28.339Z,99.90
2022-08-05T05:23:03.110Z,99.90
2022-08-05T05:25:41.063Z,99.90
2022-08-05T05:28:09.391Z,99.90
2022-08-05T05:30:37.396Z,99.90
2022-08-05T05:33:15.851Z,99.90
2022-08-05T05:35:47.918Z,99.90
2022-08-05T05:38:22.497Z,99.90
2022-08-05T05:40:55.981Z,99.90
2022-08-05T05:43:54.810Z,99.90
2022-08-05T05:46:17.648Z,99.90
2022-08-05T05:48:48.392Z,99.90
2022-08-05T05:51:23.197Z,99.90
2022-08-05T05:53:57.381Z,99.90
2022-08-05T05:56:32.602Z,99.90
2022-08-05T05:59:07.622Z,99.90
2022-08-05T06:01:38.040Z,99.90
2022-08-05T06:04:07.304Z,99.90
2022-08-05T06:06:35.329Z,99.90
2022-08-05T06:09:05.998Z,99.90
2022-08-05T06:11:34.939Z,99.90
2022-08-05T06:14:06.546Z,99.90
2022-08-05T06:16:37.354Z,99.90
2022-08-05T06:19:07.456Z,99.90
2022-08-05T06:21:38.376Z,99.90
2022-08-05T06:24:11.217Z,99.90
2022-08-05T06:26:51.714Z,99.90
2022-08-05T06:29:25.207Z,99.90
2022-08-05T06:32:20.972Z,99.90
2022-08-05T06:34:54.107Z,99.90
2022-08-05T06:37:56.546Z,99.90
2022-08-05T06:40:17.830Z,99.90
2022-08-05T06:42:52.011Z,99.90
2022-08-05T06:45:45.070Z,99.90
2022-08-05T06:48:36.742Z,99.60
2022-08-05T06:50:56.438Z,99.40
2022-08-05T06:53:27.865Z,99.90
2022-08-05T06:55:59.099Z,99.10
2022-08-05T06:58:35.266Z,99.70
2022-08-05T07:01:07.184Z,98.20
2022-08-05T07:03:34.681Z,98.30
2022-08-05T07:06:05.786Z,98.50
2022-08-05T07:08:47.201Z,98.30
2022-08-05T07:11:16.020Z,98.50
2022-08-05T07:14:02.335Z,98.70
2022-08-05T07:17:56.545Z,98.50
2022-08-05T07:22:29.047Z,98.20
2022-08-05T07:25:09.512Z,97.70
2022-08-05T07:27:58.526Z,97.20
2022-08-05T07:30:34.441Z,97.10
2022-08-05T07:33:05.479Z,97.40
2022-08-05T07:36:02.309Z,97.80
2022-08-05T07:38:33.428Z,98.30
2022-08-05T07:41:34.969Z,98.40
2022-08-05T07:43:51.545Z,98.10
2022-08-05T07:46:25.304Z,98.00
2022-08-05T07:49:02.124Z,98.50
2022-08-05T07:51:40.849Z,98.90
2022-08-05T07:54:23.291Z,97.90
2022-08-05T07:57:01.414Z,97.50
2022-08-05T07:59:41.485Z,97.30
2022-08-05T08:02:15.475Z,97.70
2022-08-05T08:04:46.390Z,97.20
2022-08-05T08:07:14.009Z,96.80
2022-08-05T08:09:43.534Z,97.40
2022-08-05T08:12:37.319Z,96.60
2022-08-05T08:15:01.162Z,96.20
2022-08-05T08:17:30.618Z,95.20
2022-08-05T08:20:22.440Z,95.00
2022-08-05T08:22:51.422Z,94.70
2022-08-05T08:25:26.831Z,93.60
2022-08-05T08:28:06.695Z,94.20
2022-08-05T08:30:47.409Z,92.00
2022-08-05T08:33:17.595Z,91.40
2022-08-05T08:35:52.729Z,91.60
2022-08-05T08:38:35.689Z,91.60
2022-08-05T08:41:07.068Z,90.70
2022-08-05T08:45:19.143Z,92.00
2022-08-05T08:46:22.643Z,91.90
2022-08-05T08:49:06.296Z,91.00
2022-08-05T08:52:05.887Z,92.60
2022-08-05T08:54:27.298Z,90.80
2022-08-05T08:56:56.562Z,90.90
2022-08-05T08:59:27.496Z,90.90
2022-08-05T09:02:01.409Z,89.50
2022-08-05T09:04:30.680Z,90.00
2022-08-05T09:06:58.707Z,90.60
2022-08-05T09:09:34.778Z,90.00
2022-08-05T09:12:19.882Z,88.40
2022-08-05T09:14:59.202Z,88.60
2022-08-05T09:17:42.377Z,89.40
2022-08-05T09:20:13.219Z,88.00
2022-08-05T09:23:27.322Z,89.50
2022-08-05T09:26:20.734Z,90.30
2022-08-05T09:28:49.507Z,90.50
2022-08-05T09:31:23.307Z,88.20
2022-08-05T09:34:07.000Z,86.30
2022-08-05T09:36:45.806Z,85.60
2022-08-05T09:39:27.567Z,87.00
2022-08-05T09:42:23.472Z,85.60
2022-08-05T09:44:56.359Z,85.50
2022-08-05T09:47:46.572Z,84.50
2022-08-05T09:50:18.263Z,82.80
2022-08-05T09:53:02.207Z,83.90
2022-08-05T09:55:58.716Z,83.20
2022-08-05T09:58:22.715Z,82.40
2022-08-05T10:00:59.160Z,82.60
2022-08-05T10:03:38.680Z,82.10
2022-08-05T10:06:15.500Z,79.90
2022-08-05T10:08:43.310Z,80.50
2022-08-05T10:11:21.366Z,81.50
2022-08-05T10:13:54.758Z,82.10
2022-08-05T10:16:52.472Z,81.90
2022-08-05T10:19:23.660Z,81.50
2022-08-05T10:21:59.370Z,82.00
2022-08-05T10:24:26.972Z,81.30
2022-08-05T10:27:00.229Z,79.20
2022-08-05T10:30:06.967Z,79.70
2022-08-05T10:32:53.400Z,79.60
2022-08-05T10:35:07.145Z,79.20
2022-08-05T10:37:40.363Z,78.90
2022-08-05T10:40:29.081Z,77.50
2022-08-05T10:43:35.775Z,75.90
2022-08-05T10:46:08.207Z,74.10
2022-08-05T10:48:52.508Z,73.00
2022-08-05T10:51:28.748Z,74.70
2022-08-05T10:53:58.486Z,76.10
2022-08-05T10:56:29.457Z,74.00
2022-08-05T10:59:06.958Z,75.30
2022-08-05T11:01:55.290Z,74.50
2022-08-05T11:04:31.786Z,74.80
2022-08-05T11:07:06.406Z,72.20
2022-08-05T11:09:46.583Z,72.50
2022-08-05T11:12:26.926Z,72.60
2022-08-05T11:15:20.379Z,70.20
2022-08-05T11:18:00.520Z,72.10
2022-08-05T11:20:41.500Z,71.50
2022-08-05T11:23:56.894Z,69.40
2022-08-05T11:26:28.076Z,69.90
2022-08-05T11:29:06.714Z,69.20
2022-08-05T11:31:54.492Z,69.50
2022-08-05T11:34:39.004Z,68.20
2022-08-05T11:38:30.057Z,66.50
2022-08-05T11:40:00.593Z,65.90
2022-08-05T11:42:37.787Z,66.70
2022-08-05T11:45:23.418Z,65.00
2022-08-05T11:47:55.460Z,64.90
2022-08-05T11:50:23.006Z,68.20
2022-08-05T11:52:57.692Z,69.00
2022-08-05T11:55:32.105Z,65.20
2022-08-05T11:58:08.301Z,65.50
2022-08-05T12:00:41.386Z,66.20
2022-08-05T12:03:24.078Z,62.90
2022-08-05T12:06:06.193Z,63.60
2022-08-05T12:08:40.527Z,63.60
2022-08-05T12:11:24.833Z,64.00
2022-08-05T12:14:04.033Z,63.40
2022-08-05T12:16:38.266Z,63.70
2022-08-05T12:19:08.191Z,63.80
2022-08-05T12:21:43.253Z,65.30
2022-08-05T12:24:14.065Z,64.10
2022-08-05T12:26:44.654Z,64.70
2022-08-05T12:29:23.499Z,63.30
2022-08-05T12:31:53.448Z,64.80
2022-08-05T12:34:32.529Z,64.50
2022-08-05T12:37:21.797Z,67.10
2022-08-05T12:39:51.546Z,66.70
2022-08-05T12:42:19.883Z,68.80
2022-08-05T12:44:47.556Z,69.20
2022-08-05T12:47:30.565Z,69.70
2022-08-05T12:50:03.630Z,71.70
2022-08-05T12:52:38.768Z,70.80
2022-08-05T12:55:23.918Z,71.80
2022-08-05T12:58:51.342Z,70.20
2022-08-05T13:02:00.180Z,68.90
2022-08-05T13:03:32.455Z,68.70
2022-08-05T13:06:01.549Z,67.10
2022-08-05T13:08:32.882Z,67.60
2022-08-05T13:11:04.065Z,62.80
2022-08-05T13:14:04.639Z,61.40
2022-08-05T13:16:20.206Z,61.50
2022-08-05T13:18:57.932Z,61.80
2022-08-05T13:21:27.862Z,63.30
2022-08-05T13:23:55.931Z,62.50
2022-08-05T13:26:30.247Z,63.60
2022-08-05T13:28:59.306Z,59.80
2022-08-05T13:32:03.338Z,59.40
2022-08-05T13:34:24.169Z,59.80
2022-08-05T13:36:56.000Z,63.20
2022-08-05T13:39:24.613Z,65.70
2022-08-05T13:42:14.318Z,65.50
2022-08-05T13:44:46.283Z,61.70
2022-08-05T13:47:34.623Z,62.40
2022-08-05T13:50:04.407Z,64.00
2022-08-05T13:52:35.229Z,63.40
2022-08-05T13:55:07.269Z,59.00
2022-08-05T13:57:50.900Z,60.50
2022-08-05T14:00:26.960Z,62.00
2022-08-05T14:02:58.238Z,61.90
2022-08-05T14:05:48.107Z,58.10
2022-08-05T14:08:20.756Z,59.30
2022-08-05T14:11:08.085Z,61.30
2022-08-05T14:13:42.721Z,61.50
2022-08-05T14:16:11.567Z,62.80
2022-08-05T14:18:44.217Z,57.30
2022-08-05T14:22:08.681Z,57.00
2022-08-05T14:24:00.710Z,58.50
2022-08-05T14:26:35.514Z,59.40
2022-08-05T14:29:06.406Z,59.10
2022-08-05T14:32:03.641Z,59.00
2022-08-05T14:34:35.393Z,58.00
2022-08-05T14:37:04.432Z,58.50
2022-08-05T14:39:49.288Z,59.40
2022-08-05T14:42:20.937Z,58.50
2022-08-05T14:44:49.148Z,57.80
2022-08-05T14:47:16.482Z,57.00
2022-08-05T14:50:17.775Z,56.50
2022-08-05T14:52:57.802Z,58.10
2022-08-05T14:55:38.392Z,58.30
2022-08-05T14:58:11.691Z,60.30
2022-08-05T15:00:58.387Z,58.60
2022-08-05T15:03:33.685Z,58.80
2022-08-05T15:06:07.576Z,57.30
2022-08-05T15:09:01.146Z,56.40
2022-08-05T15:11:51.573Z,56.00
2022-08-05T15:14:20.156Z,54.90
2022-08-05T15:17:04.284Z,55.80
2022-08-05T15:19:32.337Z,56.20
2022-08-05T15:22:01.213Z,57.30
2022-08-05T15:24:29.103Z,58.30
2022-08-05T15:26:57.012Z,58.60
2022-08-05T15:29:29.807Z,58.00
2022-08-05T15:32:03.081Z,57.10
2022-08-05T15:34:32.950Z,57.10
2022-08-05T15:37:06.296Z,57.40
2022-08-05T15:40:58.662Z,58.50
2022-08-05T15:42:53.514Z,58.60
2022-08-05T15:45:16.433Z,58.60
2022-08-05T15:47:46.315Z,60.50
2022-08-05T15:50:15.783Z,60.70
2022-08-05T15:52:54.155Z,60.30
2022-08-05T15:55:25.159Z,59.30
2022-08-05T15:58:16.398Z,58.90
2022-08-05T16:00:50.806Z,57.80
2022-08-05T16:03:32.635Z,58.10
2022-08-05T16:06:01.230Z,58.90
2022-08-05T16:08:30.681Z,56.80
2022-08-05T16:10:58.743Z,58.60
2022-08-05T16:13:34.126Z,58.20
2022-08-05T16:16:03.363Z,58.10
2022-08-05T16:18:32.892Z,57.80
2022-08-05T16:21:03.926Z,58.40
2022-08-05T16:23:32.981Z,58.70
2022-08-05T16:26:20.067Z,59.40
2022-08-05T16:28:54.415Z,58.60
2022-08-05T16:31:21.988Z,59.60
2022-08-05T16:33:49.726Z,58.70
2022-08-05T16:36:20.226Z,58.50
2022-08-05T16:38:54.986Z,58.20
2022-08-05T16:42:14.084Z,58.50
2022-08-05T16:44:12.617Z,59.70
2022-08-05T16:46:41.186Z,59.80
2022-08-05T16:49:09.148Z,59.50
2022-08-05T16:51:50.406Z,59.30
2022-08-05T16:54:28.675Z,59.60
2022-08-05T16:56:59.272Z,60.10
2022-08-05T16:59:27.910Z,60.10
2022-08-05T17:01:58.185Z,59.70
2022-08-05T17:04:27.757Z,59.90
2022-08-05T17:06:59.992Z,59.50
2022-08-05T17:09:29.759Z,59.60
2022-08-05T17:11:59.466Z,59.00
2022-08-05T17:14:37.036Z,59.20
2022-08-05T17:17:06.731Z,60.30
2022-08-05T17:19:43.788Z,59.80
2022-08-05T17:22:17.775Z,58.40
2022-08-05T17:24:57.042Z,59.60
2022-08-05T17:27:33.839Z,60.00
2022-08-05T17:30:03.436Z,58.80
2022-08-05T17:32:32.146Z,60.80
2022-08-05T17:35:01.243Z,60.80
2022-08-05T17:37:40.578Z,59.80
2022-08-05T17:40:17.228Z,60.40
2022-08-05T17:42:49.755Z,60.20
2022-08-05T17:45:23.014Z,60.60
2022-08-05T17:47:55.315Z,60.40
2022-08-05T17:50:28.934Z,59.70
2022-08-05T17:53:01.454Z,59.70
2022-08-05T17:55:37.735Z,60.10
2022-08-05T17:58:12.782Z,60.40
2022-08-05T18:00:47.036Z,60.70
2022-08-05T18:06:05.924Z,62.50
2022-08-05T18:08:38.855Z,63.00
2022-08-05T18:11:11.412Z,63.30
2022-08-05T18:13:52.184Z,64.80
2022-08-05T18:16:20.358Z,65.40
2022-08-05T18:18:50.160Z,65.70
2022-08-05T18:21:21.090Z,67.20
2022-08-05T18:23:53.717Z,67.60
2022-08-05T18:26:27.683Z,68.40
2022-08-05T18:28:57.234Z,70.00
2022-08-05T18:31:24.666Z,70.70
2022-08-05T18:33:52.279Z,71.40
2022-08-05T18:36:19.695Z,72.70
2022-08-05T18:38:55.674Z,73.40
2022-08-05T18:41:57.397Z,72.90
2022-08-05T18:44:10.858Z,72.80
2022-08-05T18:46:41.127Z,74.30
2022-08-05T18:49:30.409Z,73.40
2022-08-05T18:52:16.903Z,74.00
2022-08-05T18:54:48.732Z,73.70
2022-08-05T18:57:17.969Z,75.20
2022-08-05T19:00:02.495Z,76.00
2022-08-05T19:02:31.662Z,76.70
2022-08-05T19:05:03.012Z,78.00
2022-08-05T19:07:50.103Z,77.70
2022-08-05T19:10:17.587Z,76.60
2022-08-05T19:12:46.275Z,75.00
2022-08-05T19:15:58.229Z,77.60
2022-08-05T19:18:09.510Z,78.90
2022-08-05T19:20:41.654Z,81.30
2022-08-05T19:24:04.434Z,78.50
2022-08-05T19:26:01.753Z,79.70
2022-08-05T19:28:34.637Z,79.70
2022-08-05T19:31:06.079Z,81.60
2022-08-05T19:33:36.878Z,84.60
2022-08-05T19:36:09.077Z,94.40
2022-08-05T19:38:36.850Z,99.90
2022-08-05T19:41:07.394Z,99.90
2022-08-05T19:44:04.816Z,99.90
2022-08-05T19:46:30.191Z,99.90
2022-08-05T19:49:00.837Z,99.90
2022-08-05T19:51:56.330Z,99.90
2022-08-05T19:54:26.667Z,99.90
2022-08-05T19:57:06.669Z,99.90
2022-08-05T19:59:59.287Z,99.90
2022-08-05T20:02:27.716Z,99.90
2022-08-05T20:04:58.671Z,99.90
2022-08-05T20:07:46.514Z,99.90
2022-08-05T20:10:14.902Z,99.90
2022-08-05T20:12:46.090Z,99.90
2022-08-05T20:15:48.529Z,99.90
2022-08-05T20:18:10.115Z,99.90
2022-08-05T20:20:55.017Z,99.90
2022-08-05T20:23:39.225Z,99.90
2022-08-05T20:26:16.263Z,99.90
2022-08-05T20:28:51.377Z,99.90
2022-08-05T20:31:21.770Z,99.90
2022-08-05T20:33:50.850Z,99.90
2022-08-05T20:36:18.304Z,99.90
2022-08-05T20:38:54.282Z,99.90
2022-08-05T20:41:27.059Z,99.90
2022-08-05T20:44:18.397Z,99.90
2022-08-05T20:46:47.788Z,99.90
2022-08-05T20:49:24.148Z,99.90
2022-08-05T20:51:55.090Z,99.90
2022-08-05T20:54:24.715Z,99.90
2022-08-05T20:56:53.073Z,99.90
2022-08-05T20:59:26.874Z,99.90
2022-08-05T21:02:08.687Z,99.90
2022-08-05T21:04:36.724Z,99.90
2022-08-05T21:07:08.210Z,99.90
2022-08-05T21:09:36.250Z,99.90
2022-08-05T21:12:09.373Z,99.90
2022-08-05T21:14:38.824Z,99.90
2022-08-05T21:17:06.414Z,99.90
2022-08-05T21:19:46.864Z,99.90
2022-08-05T21:22:18.636Z,99.90
2022-08-05T21:24:51.941Z,99.90
2022-08-05T21:27:24.962Z,99.90
2022-08-05T21:29:55.968Z,99.90
2022-08-05T21:32:26.560Z,99.90
2022-08-05T21:35:16.695Z,99.90
2022-08-05T21:37:52.698Z,99.90
2022-08-05T21:40:25.418Z,99.90
2022-08-05T21:42:53.896Z,99.90
2022-08-05T21:45:24.929Z,99.90
2022-08-05T21:48:06.569Z,99.90
2022-08-05T21:50:37.274Z,99.90
2022-08-05T21:53:16.247Z,99.90
2022-08-05T21:56:06.397Z,99.90
2022-08-05T21:58:32.540Z,99.90
2022-08-05T22:00:59.978Z,99.90
2022-08-05T22:03:53.226Z,99.90
2022-08-05T22:06:16.217Z,99.90
2022-08-05T22:08:51.865Z,99.90
2022-08-05T22:11:35.169Z,99.90
2022-08-05T22:14:34.176Z,99.90
2022-08-05T22:16:53.040Z,99.90
2022-08-05T22:20:02.641Z,99.90
2022-08-05T22:22:11.236Z,99.90
2022-08-05T22:24:58.071Z,99.90
2022-08-05T22:28:09.537Z,99.90
2022-08-05T22:30:32.251Z,99.90
2022-08-05T22:33:03.694Z,99.90
2022-08-05T22:35:48.844Z,99.90
2022-08-05T22:38:18.877Z,99.90
2022-08-05T22:40:50.128Z,99.90
2022-08-05T22:43:37.066Z,99.90
2022-08-05T22:46:13.588Z,99.90
2022-08-05T22:48:50.869Z,99.90
2022-08-05T22:51:23.164Z,99.90
2022-08-05T22:53:57.333Z,99.90
2022-08-05T22:56:30.029Z,99.90
2022-08-05T22:59:00.001Z,99.90
2022-08-05T23:01:50.918Z,99.90
2022-08-05T23:04:19.930Z,99.90
2022-08-05T23:06:47.672Z,99.90
2022-08-05T23:09:27.687Z,99.90
2022-08-05T23:12:02.954Z,99.90
2022-08-05T23:14:32.085Z,99.90
2022-08-05T23:17:24.276Z,99.90
2022-08-05T23:19:56.588Z,99.90
2022-08-05T23:22:27.413Z,99.90
2022-08-05T23:24:55.097Z,99.90
2022-08-05T23:27:22.570Z,99.90
2022-08-05T23:29:50.685Z,99.90
2022-08-05T23:32:22.677Z,99.90
2022-08-05T23:34:50.835Z,99.90
2022-08-05T23:37:18.313Z,99.90
2022-08-05T23:39:54.377Z,99.90
2022-08-05T23:42:29.641Z,99.90
2022-08-05T23:44:57.328Z,99.90
2022-08-05T23:47:24.943Z,99.90
2022-08-05T23:49:55.643Z,99.90
2022-08-05T23:52:27.187Z,99.90
2022-08-05T23:54:59.922Z,99.90
2022-08-05T23:57:28.036Z,99.90
